logo
Search for airport 
image banner adimage banner adimage banner ad
image banner ad

MRHM - Hacienda Rancho Monterreal

Located in Liberia, Costa Rica

ICAO - , IATA -

Data provided by Airmate  

General information

Coordinates: N10°32'58" W85°31'46"
Elevation is 91 feet MSL.
 
View others Airports in Guanacaste

Operational data

Special qualification required
Current time UTC:
Current local time:
Weather at : MRLB - Daniel Oduber Intl ( 5 km )
TAF: MRLB 180507Z 1806/1906 09007KT 9999 FEW045 TX37/1820Z TN24/1811Z BECMG 1821/1823 29008KT BECMG 1903/1905 08007KT
View NOTAMs / SUP AIP / TFR affecting this airport [VIEW]
Communications frequencies: [VIEW]

Runways:

RWY identifierQFULength (ft)Width (ft)SurfaceLDA (ft)
0600UNK
2400UNK

Airport contact information

Address: Liberia Costa Rica

Satellite view of MRHM